Terminal Aerodrome Forecast
Issued by NWS North Platte, NE

Home | Current Version | Previous Version | Text Only | Print | Product List | Glossary Off
Versions: 1 2 3 4 5 6 7 8 9 10 11 12 13 14 15 16 17 18 19 20 21 22 23

422
FTUS43 KLBF 222341
TAFVTN
TAF
KVTN 222341Z 2300/2324 36014KT P6SM SCT250
     FM230300 02012KT P6SM BKN100 OVC250
     FM230800 03011KT P6SM -SN OVC008
     FM231200 04014G20KT 3SM -SN OVC003
     FM231500 04017G24KT 1/2SM SN OVC003=

USA.gov is the U.S. government's official web portal to all federal, state and local government web resources and services.